• Join FlightAware (Why Join?)
  • Login
  • US Flag 
09:45AM EST


 

Airport Tracker/Info


-or-


 

Live Flight TrackerFlight Track Log ✈ UAL4236 ✈ 16-Apr-2013 ✈ KELP - KIAH

Flight Track Log - Related Links

Times and Time Zones

All times are in EDT time to prevent confusion due to time zone crossing. See the UAL4236 flight status page for this flight to view local times or setup timezone preferences in your user account.

Time Position Orientation Groundspeed Altitude Reporting Facility
EDT Latitude Longitude Course Direction KTS MPH feet Rate Location/Type
12:32PM 31.7981 -106.4039 250° West 162 186 5,300  Level Albuquerque Center
12:33PM 31.7650 -106.3911 162° South 215 247 6,200 1,800 Climbing Albuquerque Center
12:34PM 31.7531 -106.2850 98° East 267 307 9,000 2,100 Climbing Albuquerque Center
12:35PM 31.7475 -105.8863 96° East  Level Estimated
12:35PM 31.7461 -106.2094 96° East 266 306 10,600  Level Albuquerque Center
12:36PM 31.7271 -105.7564 100° East  Level FlightAware Approximate
12:36PM 31.7364 -106.1122 97° East 297 342 12,000  Level Albuquerque Center
12:37PM 31.7122 -105.6340 96° East  Level FlightAware Approximate
12:37PM 31.7261 -106.0053 96° East 329 379 13,100  Level Albuquerque Center
12:38PM 31.7147 -105.8894 97° East 355 409 14,200 960 Climbing Albuquerque Center
12:39PM 31.7019 -105.7683 97° East 372 428 15,200 1,080 Climbing Albuquerque Center
12:40PM 31.6875 -105.6181 96° East 386 444 16,500 1,080 Climbing Albuquerque Center
12:41PM 31.6756 -105.4911 96° East 391 450 17,500 960 Climbing Albuquerque Center
12:42PM 31.6628 -105.3617 97° East 398 458 18,600 960 Climbing Albuquerque Center
12:43PM 31.6494 -105.2317 97° East 400 460 19,600 960 Climbing Albuquerque Center
12:44PM 31.6353 -105.0972 97° East 409 471 20,700 1,020 Climbing Albuquerque Center
12:45PM 31.6225 -104.9594 96° East 419 482 21,800 1,080 Climbing Albuquerque Center
12:46PM 31.6053 -104.7942 97° East 423 487 23,000 1,080 Climbing Albuquerque Center
12:47PM 31.5892 -104.6556 98° East 425 489 24,100 960 Climbing Albuquerque Center
12:48PM 31.5750 -104.5147 97° East 429 494 25,100 960 Climbing Albuquerque Center
12:49PM 31.5592 -104.3750 98° East 431 496 26,100 960 Climbing Albuquerque Center
12:50PM 31.5442 -104.2356 97° East 431 496 27,200 960 Climbing Albuquerque Center
12:51PM 31.5292 -104.0964 97° East 431 496 28,200 960 Climbing Albuquerque Center
12:52PM 31.5136 -103.9592 98° East 429 494 29,300 1,080 Climbing Albuquerque Center
12:53PM 31.4953 -103.7928 97° East 428 493 30,500 1,020 Climbing Albuquerque Center
12:54PM 31.4786 -103.6569 98° East 427 491 31,500 960 Climbing Albuquerque Center
12:55PM 31.4631 -103.5169 97° East 431 496 32,600 960 Climbing Albuquerque Center
12:56PM 31.4447 -103.3753 99° East 437 503 33,600 960 Climbing Albuquerque Center
12:57PM 31.4269 -103.2350 98° East 437 503 34,700 660 Climbing Albuquerque Center
12:58PM 31.4058 -103.0639 98° East 440 506 35,000 120 Climbing Albuquerque Center
12:59PM 31.3867 -102.9156 99° East 454 522 35,000  Level Albuquerque Center
01:00PM 31.3681 -102.7678 98° East 460 529 35,000  Level Albuquerque Center
01:01PM 31.3497 -102.6219 98° East 457 526 35,000  Level Albuquerque Center
01:02PM 31.3294 -102.4736 99° East 457 526 35,000  Level Albuquerque Center
01:04PM 31.3108 -102.3311 99° East 454 522 35,000  Level Albuquerque Center
01:05PM 31.2925 -102.1878 98° East 449 517 35,000  Level Albuquerque Center
01:06PM 31.2694 -102.0167 99° East 446 513 35,000  Level Albuquerque Center
01:07PM 31.2533 -101.8889 98° East 447 514 35,000  Level Albuquerque Center
01:08PM 31.2286 -101.7150 99° East 451 519 35,000  Level Albuquerque Center
01:09PM 31.1972 -101.4792 99° East 461 531 35,000  Level Houston Center
01:10PM 31.1781 -101.3356 99° East 467 537 35,000  Level Houston Center
01:11PM 31.1567 -101.1864 99° East 466 536 35,000 -60 Level Houston Center
01:12PM 31.1364 -101.0386 99° East 463 533 34,900  Descending Houston Center
01:13PM 31.1156 -100.8956 100° East 451 519 35,000  Climbing Houston Center
01:14PM 31.0914 -100.7242 99° East 446 513 35,000  Level Houston Center
01:15PM 31.0717 -100.5811 99° East 445 512 35,000  Level Houston Center
01:17PM 31.0500 -100.4406 100° East 441 507 35,000  Level Houston Center
01:18PM 31.0294 -100.2994 100° East 441 507 35,000  Level Houston Center
01:19PM 31.0083 -100.1586 100° East 441 507 35,000  Level Houston Center
01:20PM 30.9878 -100.0175 100° East 441 507 35,000  Level Houston Center
01:21PM 30.9625 -99.8492 100° East 441 507 35,000  Level Houston Center
01:22PM 30.9392 -99.7011 100° East 454 522 35,000  Level Houston Center
01:23PM 30.9264 -99.5472 95° East 471 542 35,000  Level Houston Center
01:24PM 30.9247 -99.3911 91° East 480 552 35,000  Level Houston Center
01:25PM 30.9211 -99.2389 92° East 471 542 35,000  Level Houston Center
01:26PM 30.9167 -99.0747 92° East 464 534 35,000  Level Houston Center
01:27PM 30.9150 -98.9206 91° East 471 542 35,000  Level Houston Center
01:28PM 30.9103 -98.7664 92° East 473 544 35,000  Level Houston Center
01:29PM 30.9064 -98.6106 92° East 476 548 35,000  Level Houston Center
01:30PM 30.9036 -98.4547 91° East 478 550 35,000 -300 Level Houston Center
01:31PM 30.8978 -98.2736 92° East 476 548 34,500 -1,980 Descending Houston Center
01:32PM 30.8939 -98.1208 92° East 470 541 31,000 -2,700 Descending Houston Center
01:33PM 30.8892 -97.9708 92° East 464 534 29,000 -1,020 Descending Houston Center
01:34PM 30.8844 -97.8231 92° East 455 524 29,000  Level Houston Center
01:35PM 30.8800 -97.6775 92° East 449 517 29,000  Level Houston Center
01:36PM 30.8744 -97.5275 92° East 457 526 29,000  Level Houston Center
01:37PM 30.8681 -97.3753 93° East 469 540 29,000  Level Houston Center
01:38PM 30.8628 -97.1950 92° East 486 559 29,000 -60 Level Houston Center
01:39PM 30.8258 -97.0461 106° East 482 555 28,900 -540 Descending Houston Center
01:40PM 30.7797 -96.9008 110° East 477 549 27,900 -1,020 Descending Houston Center
01:41PM 30.7339 -96.7514 110° East 485 558 26,900 -1,380 Descending Houston Center
01:42PM 30.6883 -96.6033 110° East 485 558 25,100 -2,040 Descending Houston Center
01:43PM 30.6361 -96.4350 110° East 476 548 22,700 -2,220 Descending Houston Center
01:44PM 30.6028 -96.3381 112° Southeast 468 539 21,300 -1,980 Descending Houston Center
01:44PM 30.5906 -96.2933 108° East 466 536 20,700 -2,520 Descending Houston Center
01:45PM 30.5564 -96.1856 110° East 427 491 18,500 -3,480 Descending Houston Center
01:46PM 30.5167 -96.0642 111° Southeast 407 468 14,500 -3,960 Descending Houston Center
01:46PM 30.5056 -96.0339 113° Southeast 410 472 13,500 -3,420 Descending Houston Center
01:48PM 30.4694 -95.9189 110° East 387 445 10,100 -1,980 Descending Houston Center
01:48PM 30.4333 -95.8531 122° Southeast 272 313 10,000 -120 Descending Houston Center
01:49PM 30.4219 -95.8461 152° Southeast 315 362 10,000  Level Houston Center
01:49PM 30.3561 -95.8331 170° South 289 333 10,000  Level Houston Center
01:50PM 30.3436 -95.8286 163° South 288 331 10,000 -420 Level Houston Center
01:50PM 30.2750 -95.8183 173° South 286 329 9,600 -720 Descending Houston Center
01:51PM 30.2650 -95.8142 160° South 291 335 9,300 -1,800 Descending Houston Center
01:51PM 30.2003 -95.8028 171° South 276 318 7,800 -1,860 Descending Houston Center
01:52PM 30.1772 -95.7922 158° South 274 315 7,400 -780 Descending Houston Center
01:52PM 30.1319 -95.7650 153° Southeast 244 281 7,000 -420 Descending Houston Center
01:53PM 30.1153 -95.7542 151° Southeast 254 292 7,000 -900 Level Houston Center
01:53PM 30.0700 -95.7289 154° Southeast 249 287 6,100 -1,380 Descending Houston Center
01:54PM 30.0536 -95.7192 153° Southeast 248 285 5,600 -1,140 Descending Houston Center
01:54PM 30.0103 -95.6947 154° Southeast 240 276 5,000 -600 Descending Houston Center
01:55PM 29.9983 -95.6797 133° Southeast 238 274 5,000 -540 Level Houston Center
01:56PM 29.9925 -95.6147 96° East 232 267 4,400 -780 Descending Houston Center
01:56PM 29.9928 -95.6044 88° East 237 273 4,200 -1,320 Descending Houston Center
01:57PM 29.9919 -95.5378 91° East 241 277 3,100 -1,200 Descending Houston Center
01:57PM 29.9939 -95.5278 77° East 239 275 3,000 -1,020 Descending Houston Center
01:58PM 29.9925 -95.4750 92° East 186 214 2,100 -1,080 Descending Houston Center
01:58PM 29.9944 -95.4522 84° East 215 247 1,900 -900 Descending Houston Center
01:59PM 29.9936 -95.4169 92° East 174 200 1,200 -1,020 Descending Houston Center